createdAt,value
2023-03-08T00:00:21.514Z,15.43
2023-03-08T00:00:53.395Z,13.10
2023-03-08T00:01:26.441Z,13.52
2023-03-08T00:01:58.423Z,16.48
2023-03-08T00:02:30.533Z,12.57
2023-03-08T00:03:04.562Z,12.75
2023-03-08T00:03:36.624Z,14.07
2023-03-08T00:04:10.950Z,13.45
2023-03-08T00:04:43.985Z,13.65
2023-03-08T00:05:16.919Z,12.30
2023-03-08T00:05:48.968Z,11.90
2023-03-08T00:06:22.206Z,12.52
2023-03-08T00:06:54.167Z,12.70
2023-03-08T00:07:26.178Z,11.80
2023-03-08T00:07:59.247Z,13.13
2023-03-08T00:08:31.227Z,12.98
2023-03-08T00:09:03.661Z,15.60
2023-03-08T00:09:38.528Z,12.48
2023-03-08T00:10:12.515Z,12.07
2023-03-08T00:10:44.530Z,11.45
2023-03-08T00:11:17.879Z,15.55
2023-03-08T00:11:49.833Z,13.25
2023-03-08T00:12:22.775Z,13.05
2023-03-08T00:12:55.693Z,12.85
2023-03-08T00:13:27.599Z,14.85
2023-03-08T00:14:01.639Z,11.48
2023-03-08T00:14:34.621Z,13.50
2023-03-08T00:15:07.749Z,14.70
2023-03-08T00:15:40.429Z,11.38
2023-03-08T00:16:14.706Z,11.68
2023-03-08T00:16:46.625Z,12.90
2023-03-08T00:17:19.146Z,14.80
2023-03-08T00:17:52.186Z,11.93
2023-03-08T00:18:24.207Z,13.45
2023-03-08T00:18:56.287Z,11.32
2023-03-08T00:19:29.248Z,13.18
2023-03-08T00:20:01.197Z,13.40
2023-03-08T00:20:33.298Z,13.10
2023-03-08T00:21:08.879Z,12.50
2023-03-08T00:21:40.871Z,12.00
2023-03-08T00:22:13.179Z,14.32
2023-03-08T00:22:46.119Z,11.80
2023-03-08T00:23:18.053Z,11.30
2023-03-08T00:23:52.487Z,13.27
2023-03-08T00:24:25.506Z,16.65
2023-03-08T00:24:57.340Z,12.77
2023-03-08T00:25:30.556Z,11.57
2023-03-08T00:26:02.846Z,11.38
2023-03-08T00:26:35.728Z,12.23
2023-03-08T00:27:07.600Z,14.23
2023-03-08T00:27:39.464Z,13.98
2023-03-08T00:28:12.290Z,11.20
2023-03-08T00:28:46.235Z,12.32
2023-03-08T00:29:18.264Z,13.32
2023-03-08T00:29:51.132Z,13.63
2023-03-08T00:30:23.012Z,12.05
2023-03-08T00:30:59.690Z,11.30
2023-03-08T00:31:32.821Z,12.95
2023-03-08T00:32:04.777Z,13.23
2023-03-08T00:32:36.750Z,12.43
2023-03-08T00:33:09.615Z,11.55
2023-03-08T00:33:41.795Z,14.75
2023-03-08T00:34:13.687Z,11.65
2023-03-08T00:34:47.009Z,14.13
2023-03-08T00:35:19.947Z,10.10
2023-03-08T00:35:56.534Z,12.65
2023-03-08T00:36:29.603Z,12.45
2023-03-08T00:37:01.492Z,12.82
2023-03-08T00:37:33.373Z,13.20
2023-03-08T00:38:06.259Z,14.38
2023-03-08T00:38:38.343Z,11.93
2023-03-08T00:39:11.414Z,12.00
2023-03-08T00:39:44.552Z,12.25
2023-03-08T00:40:16.701Z,13.27
2023-03-08T00:40:49.948Z,12.68
2023-03-08T00:41:22.823Z,11.90
2023-03-08T00:41:54.680Z,13.35
2023-03-08T00:42:26.551Z,10.82
2023-03-08T00:42:59.461Z,12.15
2023-03-08T00:43:31.631Z,11.77
2023-03-08T00:44:04.002Z,10.20
2023-03-08T00:44:36.940Z,10.82
2023-03-08T00:45:10.365Z,12.50
2023-03-08T00:45:42.229Z,10.85
2023-03-08T00:46:15.817Z,12.30
2023-03-08T00:46:47.749Z,11.02
2023-03-08T00:47:19.733Z,14.48
2023-03-08T00:47:52.691Z,12.38
2023-03-08T00:48:25.280Z,11.18
2023-03-08T00:48:57.769Z,11.82
2023-03-08T00:49:30.778Z,13.43
2023-03-08T00:50:02.737Z,12.90
2023-03-08T00:50:34.582Z,14.10
2023-03-08T00:51:07.950Z,11.80
2023-03-08T00:51:39.866Z,14.30
2023-03-08T00:52:12.076Z,13.48
2023-03-08T00:52:44.914Z,10.18
2023-03-08T00:53:16.762Z,11.73
2023-03-08T00:53:48.882Z,12.63
2023-03-08T00:54:21.791Z,13.73
2023-03-08T00:54:53.656Z,13.07
2023-03-08T00:55:25.603Z,12.18
2023-03-08T00:56:01.257Z,12.20
2023-03-08T00:56:33.104Z,9.52
2023-03-08T00:57:05.018Z,12.82
2023-03-08T00:57:37.889Z,12.13
2023-03-08T00:58:09.748Z,12.02
2023-03-08T00:58:42.182Z,11.07
2023-03-08T00:59:14.998Z,12.85
2023-03-08T00:59:47.042Z,10.40
2023-03-08T01:00:19.441Z,14.25
2023-03-08T01:00:52.639Z,11.38
2023-03-08T01:01:24.563Z,13.13
2023-03-08T01:01:56.401Z,13.13
2023-03-08T01:02:29.344Z,10.90
2023-03-08T01:03:01.176Z,12.18
2023-03-08T01:03:33.395Z,10.30
2023-03-08T01:04:06.453Z,12.07
2023-03-08T01:04:38.345Z,12.85
2023-03-08T01:05:10.555Z,12.73
2023-03-08T01:05:45.081Z,9.18
2023-03-08T01:06:17.021Z,9.82
2023-03-08T01:06:49.065Z,12.80
2023-03-08T01:07:23.440Z,11.48
2023-03-08T01:07:55.799Z,10.60
2023-03-08T01:08:27.920Z,12.82
2023-03-08T01:09:01.472Z,11.55
2023-03-08T01:09:33.330Z,11.40
2023-03-08T01:10:05.901Z,19.58
2023-03-08T01:10:38.849Z,12.35
2023-03-08T01:11:18.379Z,13.48
2023-03-08T01:11:51.357Z,12.40
2023-03-08T01:12:25.201Z,12.70
2023-03-08T01:12:57.480Z,14.57
2023-03-08T01:13:32.328Z,11.57
2023-03-08T01:14:05.342Z,11.65
2023-03-08T01:14:39.264Z,12.35
2023-03-08T01:15:11.650Z,12.60
2023-03-08T01:15:43.967Z,13.75
2023-03-08T01:16:17.756Z,14.40
2023-03-08T01:16:50.627Z,12.10
2023-03-08T01:17:22.596Z,12.68
2023-03-08T01:17:54.477Z,11.75
2023-03-08T01:18:27.947Z,14.02
2023-03-08T01:19:00.978Z,11.38
2023-03-08T01:19:32.881Z,16.35
2023-03-08T01:20:07.133Z,12.20
2023-03-08T01:20:39.095Z,10.52
2023-03-08T01:21:12.072Z,11.35
2023-03-08T01:21:44.888Z,12.25
2023-03-08T01:22:16.881Z,10.32
2023-03-08T01:22:48.722Z,11.60
2023-03-08T01:23:21.565Z,11.73
2023-03-08T01:23:53.501Z,12.15
2023-03-08T01:24:25.531Z,10.43
2023-03-08T01:24:58.475Z,9.13
2023-03-08T01:25:30.442Z,10.75
2023-03-08T01:26:04.051Z,13.27
2023-03-08T01:26:38.311Z,12.82
2023-03-08T01:27:10.357Z,11.00
2023-03-08T01:27:42.284Z,9.85
2023-03-08T01:28:14.162Z,11.07
2023-03-08T01:28:47.336Z,10.80
2023-03-08T01:29:19.266Z,10.93
2023-03-08T01:29:51.145Z,10.57
2023-03-08T01:30:24.068Z,9.23
2023-03-08T01:31:01.763Z,10.80
2023-03-08T01:31:33.892Z,12.65
2023-03-08T01:32:07.369Z,10.65
2023-03-08T01:32:39.529Z,12.40
2023-03-08T01:33:11.464Z,13.15
2023-03-08T01:33:44.923Z,13.32
2023-03-08T01:34:16.800Z,10.45
2023-03-08T01:34:49.001Z,11.60
2023-03-08T01:35:21.915Z,11.90
2023-03-08T01:35:53.822Z,13.43
2023-03-08T01:36:27.666Z,10.55
2023-03-08T01:37:00.476Z,9.38
2023-03-08T01:37:33.185Z,12.10
2023-03-08T01:38:05.039Z,9.45
2023-03-08T01:38:37.645Z,12.10
2023-03-08T01:39:10.512Z,11.35
2023-03-08T01:39:42.512Z,11.00
2023-03-08T01:40:15.945Z,10.75
2023-03-08T01:40:48.804Z,14.30
2023-03-08T01:41:22.494Z,9.55
2023-03-08T01:41:55.758Z,10.60
2023-03-08T01:42:29.049Z,10.40
2023-03-08T01:43:12.010Z,10.52
2023-03-08T01:43:43.972Z,13.15
2023-03-08T01:44:18.301Z,10.32
2023-03-08T01:44:52.746Z,14.40
2023-03-08T01:46:01.836Z,10.23
2023-03-08T01:46:35.934Z,11.70
2023-03-08T01:47:13.965Z,13.23
2023-03-08T01:47:45.850Z,9.70
2023-03-08T01:48:18.797Z,11.45
2023-03-08T01:48:56.540Z,12.50
2023-03-08T01:49:33.323Z,11.63
2023-03-08T01:50:11.448Z,10.70
2023-03-08T01:50:46.384Z,10.07
2023-03-08T01:51:24.568Z,11.02
2023-03-08T01:52:03.857Z,10.55
2023-03-08T01:52:39.549Z,13.85
2023-03-08T01:53:12.432Z,10.05
2023-03-08T01:53:45.550Z,12.73
2023-03-08T01:54:20.925Z,11.73
2023-03-08T01:54:56.468Z,10.93
2023-03-08T01:55:28.325Z,12.13
2023-03-08T01:56:00.185Z,13.75
2023-03-08T01:56:34.106Z,9.05
2023-03-08T01:57:12.634Z,10.63
2023-03-08T01:57:49.710Z,11.50
2023-03-08T01:58:21.930Z,10.90
2023-03-08T01:58:54.563Z,12.50
2023-03-08T01:59:28.878Z,11.73
2023-03-08T02:00:08.755Z,11.52
2023-03-08T02:00:40.590Z,11.18
2023-03-08T02:01:13.568Z,11.80
2023-03-08T02:01:45.823Z,9.43
2023-03-08T02:02:20.968Z,10.80
2023-03-08T02:02:55.379Z,11.82
2023-03-08T02:03:27.246Z,15.07
2023-03-08T02:04:00.124Z,10.88
2023-03-08T02:04:32.009Z,14.38
2023-03-08T02:05:04.067Z,13.98
2023-03-08T02:05:38.432Z,11.52
2023-03-08T02:06:10.307Z,12.50
2023-03-08T02:06:43.820Z,12.95
2023-03-08T02:07:16.684Z,10.88
2023-03-08T02:07:48.808Z,10.63
2023-03-08T02:08:20.644Z,11.93
2023-03-08T02:08:53.781Z,13.15
2023-03-08T02:09:26.019Z,8.75
2023-03-08T02:09:58.083Z,12.80
2023-03-08T02:10:30.947Z,12.15
2023-03-08T02:11:02.994Z,13.65
2023-03-08T02:11:37.050Z,11.05
2023-03-08T02:12:14.017Z,9.80
2023-03-08T02:12:47.039Z,10.43
2023-03-08T02:13:21.514Z,12.75
2023-03-08T02:13:55.244Z,12.40
2023-03-08T02:14:27.950Z,11.80
2023-03-08T02:15:01.661Z,10.88
2023-03-08T02:15:34.571Z,11.15
2023-03-08T02:16:09.879Z,13.85
2023-03-08T02:16:41.780Z,10.88
2023-03-08T02:17:14.709Z,10.50
2023-03-08T02:17:47.337Z,11.75
2023-03-08T02:18:19.210Z,11.07
2023-03-08T02:18:57.661Z,11.55
2023-03-08T02:19:35.467Z,10.27
2023-03-08T02:20:14.042Z,12.77
2023-03-08T02:20:47.066Z,10.25
2023-03-08T02:21:18.971Z,12.13
2023-03-08T02:21:51.816Z,11.93
2023-03-08T02:22:24.035Z,13.95
2023-03-08T02:23:07.826Z,12.70
2023-03-08T02:23:40.636Z,13.35
2023-03-08T02:24:20.694Z,14.50
2023-03-08T02:24:52.571Z,11.38
2023-03-08T02:25:28.082Z,13.57
2023-03-08T02:26:03.958Z,11.90
2023-03-08T02:26:37.245Z,12.43
2023-03-08T02:27:14.379Z,13.50
2023-03-08T02:27:46.326Z,14.07
2023-03-08T02:28:18.734Z,12.85
2023-03-08T02:28:51.573Z,12.48
2023-03-08T02:29:23.463Z,9.63
2023-03-08T02:29:55.322Z,11.57
2023-03-08T02:30:32.321Z,12.02
2023-03-08T02:31:04.466Z,17.55
2023-03-08T02:31:36.315Z,14.27
2023-03-08T02:32:09.698Z,10.52
2023-03-08T02:32:41.760Z,11.70
2023-03-08T02:33:13.676Z,9.95
2023-03-08T02:33:46.537Z,13.57
2023-03-08T02:34:18.387Z,12.73
2023-03-08T02:34:50.237Z,11.60
2023-03-08T02:35:23.203Z,13.02
2023-03-08T02:35:55.144Z,13.52
2023-03-08T02:36:27.060Z,10.73
2023-03-08T02:36:59.885Z,10.80
2023-03-08T02:37:31.775Z,10.18
2023-03-08T02:38:04.970Z,12.98
2023-03-08T02:38:38.172Z,12.23
2023-03-08T02:39:10.002Z,11.20
2023-03-08T02:39:41.963Z,10.95
2023-03-08T02:40:15.183Z,13.95
2023-03-08T02:40:51.258Z,13.88
2023-03-08T02:41:23.148Z,11.38
2023-03-08T02:41:56.159Z,10.68
2023-03-08T02:42:28.056Z,13.75
2023-03-08T02:42:59.891Z,12.80
2023-03-08T02:43:32.777Z,11.38
2023-03-08T02:44:04.917Z,12.27
2023-03-08T02:44:36.750Z,9.73
2023-03-08T02:45:10.768Z,13.55
2023-03-08T02:45:42.636Z,10.88
2023-03-08T02:46:15.167Z,13.20
2023-03-08T02:46:48.137Z,11.85
2023-03-08T02:47:20.058Z,12.43
2023-03-08T02:47:51.988Z,10.38
2023-03-08T02:48:24.877Z,10.80
2023-03-08T02:48:56.753Z,12.45
2023-03-08T02:49:28.603Z,11.40
2023-03-08T02:50:00.443Z,12.75
2023-03-08T02:50:33.502Z,12.05
2023-03-08T02:51:05.640Z,13.65
2023-03-08T02:51:37.490Z,11.60
2023-03-08T02:52:10.363Z,10.50
2023-03-08T02:52:42.224Z,12.32
2023-03-08T02:53:15.472Z,10.93
2023-03-08T02:53:48.338Z,14.52
2023-03-08T02:54:20.200Z,17.98
2023-03-08T02:54:53.706Z,13.43
2023-03-08T02:55:27.036Z,11.93
2023-03-08T02:55:58.896Z,12.25
2023-03-08T02:56:30.744Z,11.63
2023-03-08T02:57:03.605Z,11.48
2023-03-08T02:57:35.461Z,9.95
2023-03-08T02:58:09.384Z,12.57
2023-03-08T02:58:42.255Z,12.85
2023-03-08T02:59:14.322Z,13.73
2023-03-08T02:59:46.241Z,14.73
2023-03-08T03:00:19.099Z,11.68
2023-03-08T03:00:51.967Z,11.40
2023-03-08T03:01:24.078Z,13.18
2023-03-08T03:01:57.176Z,12.38
2023-03-08T03:02:29.068Z,12.52
2023-03-08T03:03:01.927Z,11.13
2023-03-08T03:03:33.831Z,13.85
2023-03-08T03:04:05.732Z,11.90
2023-03-08T03:04:38.845Z,12.18
2023-03-08T03:05:11.447Z,14.50
2023-03-08T03:05:45.303Z,13.82
2023-03-08T03:06:19.953Z,12.93
2023-03-08T03:06:51.870Z,12.18
2023-03-08T03:07:23.703Z,10.80
2023-03-08T03:07:58.509Z,11.60
2023-03-08T03:08:32.147Z,12.25
2023-03-08T03:09:07.692Z,11.43
2023-03-08T03:09:39.593Z,11.77
2023-03-08T03:10:13.362Z,10.93
2023-03-08T03:10:46.297Z,11.75
2023-03-08T03:11:20.337Z,13.77
2023-03-08T03:11:52.315Z,11.57
2023-03-08T03:12:24.173Z,14.68
2023-03-08T03:12:57.047Z,12.90
2023-03-08T03:13:28.930Z,13.93
2023-03-08T03:14:01.203Z,11.32
2023-03-08T03:14:34.063Z,11.60
2023-03-08T03:15:07.490Z,12.80
2023-03-08T03:15:39.978Z,14.90
2023-03-08T03:16:14.862Z,12.15
2023-03-08T03:16:46.810Z,11.65
2023-03-08T03:17:18.650Z,15.30
2023-03-08T03:17:51.498Z,11.90
2023-03-08T03:18:23.351Z,14.73
2023-03-08T03:18:56.528Z,13.88
2023-03-08T03:19:29.410Z,10.90
2023-03-08T03:20:01.283Z,13.48
2023-03-08T03:20:33.316Z,11.82
2023-03-08T03:21:07.358Z,14.35
2023-03-08T03:21:39.762Z,10.95
2023-03-08T03:22:11.658Z,14.65
2023-03-08T03:22:44.798Z,11.32
2023-03-08T03:23:16.644Z,12.75
2023-03-08T03:23:50.037Z,11.38
2023-03-08T03:24:22.894Z,14.32
2023-03-08T03:24:54.736Z,12.80
2023-03-08T03:25:26.731Z,12.07
2023-03-08T03:26:06.017Z,13.88
2023-03-08T03:26:38.938Z,12.55
2023-03-08T03:27:10.812Z,12.30
2023-03-08T03:27:43.677Z,14.80
2023-03-08T03:28:15.545Z,12.88
2023-03-08T03:28:47.960Z,15.70
2023-03-08T03:29:20.838Z,12.35
2023-03-08T03:29:52.940Z,15.30
2023-03-08T03:30:24.812Z,11.13
2023-03-08T03:30:56.691Z,14.57
2023-03-08T03:31:29.692Z,10.90
2023-03-08T03:32:01.582Z,11.02
2023-03-08T03:32:33.599Z,11.25
2023-03-08T03:33:06.489Z,18.02
2023-03-08T03:33:39.317Z,12.73
2023-03-08T03:34:11.186Z,12.30
2023-03-08T03:34:44.070Z,11.13
2023-03-08T03:35:16.102Z,13.68
2023-03-08T03:35:48.009Z,12.15
2023-03-08T03:36:22.972Z,13.95
2023-03-08T03:36:54.860Z,12.70
2023-03-08T03:37:26.721Z,14.18
2023-03-08T03:37:59.545Z,14.07
2023-03-08T03:38:31.776Z,11.13
2023-03-08T03:39:05.072Z,14.80
2023-03-08T03:39:39.047Z,14.48
2023-03-08T03:40:12.542Z,15.07
2023-03-08T03:40:44.408Z,15.23
2023-03-08T03:41:19.456Z,14.88
2023-03-08T03:41:51.328Z,12.85
2023-03-08T03:42:24.265Z,14.00
2023-03-08T03:42:56.138Z,14.60
2023-03-08T03:43:28.049Z,13.10
2023-03-08T03:44:00.936Z,14.30
2023-03-08T03:44:32.892Z,12.93
2023-03-08T03:45:06.627Z,13.65
2023-03-08T03:45:38.545Z,16.33
2023-03-08T03:46:12.668Z,13.18
2023-03-08T03:46:45.620Z,13.52
2023-03-08T03:47:18.080Z,13.77
2023-03-08T03:47:50.015Z,11.85
2023-03-08T03:48:22.846Z,13.88
2023-03-08T03:48:54.736Z,13.77
2023-03-08T03:49:27.215Z,13.50
2023-03-08T03:50:00.126Z,14.43
2023-03-08T03:50:32.024Z,11.75
2023-03-08T03:51:06.092Z,11.30
2023-03-08T03:51:38.973Z,14.18
2023-03-08T03:52:10.826Z,15.32
2023-03-08T03:52:42.684Z,11.60
2023-03-08T03:53:15.498Z,15.43
2023-03-08T03:53:48.210Z,11.80
2023-03-08T03:54:21.560Z,18.85
2023-03-08T03:54:54.436Z,12.98
2023-03-08T03:55:26.432Z,11.07
2023-03-08T03:56:03.845Z,16.10
2023-03-08T03:56:36.703Z,11.85
2023-03-08T03:57:08.585Z,14.85
2023-03-08T03:57:40.460Z,14.18
2023-03-08T03:58:13.357Z,11.80
2023-03-08T03:58:45.983Z,14.00
2023-03-08T03:59:17.958Z,14.32
2023-03-08T03:59:50.895Z,19.67
2023-03-08T04:00:22.795Z,13.13
2023-03-08T04:00:56.157Z,13.07
2023-03-08T04:01:31.092Z,14.50
2023-03-08T04:02:02.990Z,13.02
2023-03-08T04:02:35.927Z,13.05
2023-03-08T04:03:08.083Z,11.80
2023-03-08T04:03:40.131Z,12.57
2023-03-08T04:04:13.042Z,13.70
2023-03-08T04:04:45.066Z,14.32
2023-03-08T04:05:17.100Z,12.65
2023-03-08T04:05:49.970Z,10.80
2023-03-08T04:06:23.822Z,12.02
2023-03-08T04:06:55.864Z,13.30
2023-03-08T04:07:28.912Z,16.00
2023-03-08T04:08:00.887Z,17.08
2023-03-08T04:08:32.875Z,13.18
2023-03-08T04:09:08.224Z,11.93
2023-03-08T04:09:41.577Z,15.63
2023-03-08T04:10:14.310Z,11.70
2023-03-08T04:10:47.168Z,13.02
2023-03-08T04:11:21.581Z,12.95
2023-03-08T04:11:54.609Z,12.68
2023-03-08T04:12:26.566Z,12.65
2023-03-08T04:12:58.464Z,14.48
2023-03-08T04:13:30.336Z,14.50
2023-03-08T04:14:03.547Z,14.25
2023-03-08T04:14:35.424Z,12.57
2023-03-08T04:15:08.596Z,16.05
2023-03-08T04:15:41.531Z,15.80
2023-03-08T04:16:15.013Z,13.27
2023-03-08T04:16:46.908Z,13.80
2023-03-08T04:17:19.741Z,16.33
2023-03-08T04:17:51.904Z,18.00
2023-03-08T04:18:23.787Z,16.05
2023-03-08T04:18:57.996Z,14.13
2023-03-08T04:19:29.956Z,12.27
2023-03-08T04:20:01.795Z,14.52
2023-03-08T04:20:34.773Z,14.07
2023-03-08T04:21:06.996Z,14.93
2023-03-08T04:21:39.136Z,15.48
2023-03-08T04:22:12.074Z,14.05
2023-03-08T04:22:44.014Z,12.70
2023-03-08T04:23:15.944Z,14.32
2023-03-08T04:23:49.217Z,14.18
2023-03-08T04:24:21.063Z,13.95
2023-03-08T04:24:54.285Z,13.07
2023-03-08T04:25:27.150Z,14.45
2023-03-08T04:25:59.088Z,17.70
2023-03-08T04:26:31.193Z,14.98
2023-03-08T04:27:04.189Z,11.05
2023-03-08T04:27:36.052Z,15.18
2023-03-08T04:28:07.918Z,12.60
2023-03-08T04:28:39.916Z,12.70
2023-03-08T04:29:12.847Z,14.55
2023-03-08T04:29:44.702Z,12.50
2023-03-08T04:30:16.858Z,14.52
2023-03-08T04:30:49.721Z,12.85
2023-03-08T04:31:23.559Z,13.55
2023-03-08T04:32:00.072Z,14.25
2023-03-08T04:32:32.243Z,11.32
2023-03-08T04:33:04.135Z,17.20
2023-03-08T04:33:36.955Z,13.13
2023-03-08T04:34:08.772Z,13.52
2023-03-08T04:34:42.872Z,14.10
2023-03-08T04:35:14.916Z,14.15
2023-03-08T04:35:46.951Z,12.55
2023-03-08T04:36:20.845Z,12.60
2023-03-08T04:36:52.767Z,12.20
2023-03-08T04:37:25.109Z,12.07
2023-03-08T04:37:57.994Z,18.60
2023-03-08T04:38:30.700Z,12.40
2023-03-08T04:39:03.614Z,15.05
2023-03-08T04:39:35.471Z,12.85
2023-03-08T04:40:10.346Z,13.10
2023-03-08T04:41:10.301Z,13.73
2023-03-08T04:41:42.199Z,15.25
2023-03-08T04:42:14.052Z,13.20
2023-03-08T04:42:46.907Z,16.25
2023-03-08T04:43:18.770Z,14.70
2023-03-08T04:43:52.569Z,14.63
2023-03-08T04:44:25.508Z,12.05
2023-03-08T04:44:57.384Z,15.05
2023-03-08T04:45:29.261Z,14.13
2023-03-08T04:46:01.680Z,16.13
2023-03-08T04:46:34.552Z,13.98
2023-03-08T04:47:06.653Z,14.00
2023-03-08T04:47:38.532Z,16.00
2023-03-08T04:48:10.480Z,14.15
2023-03-08T04:48:43.619Z,11.25
2023-03-08T04:49:15.492Z,16.63
2023-03-08T04:49:47.355Z,15.10
2023-03-08T04:50:20.293Z,15.98
2023-03-08T04:50:54.024Z,13.52
2023-03-08T04:51:26.815Z,16.83
2023-03-08T04:51:59.791Z,14.68
2023-03-08T04:52:31.630Z,11.50
2023-03-08T04:53:03.480Z,13.45
2023-03-08T04:53:38.416Z,12.93
2023-03-08T04:54:10.364Z,13.57
2023-03-08T04:54:42.288Z,12.00
2023-03-08T04:55:16.612Z,14.98
2023-03-08T04:55:48.636Z,12.07
2023-03-08T04:56:20.580Z,16.88
2023-03-08T04:56:53.432Z,12.93
2023-03-08T04:57:25.320Z,15.25
2023-03-08T04:57:57.521Z,14.73
2023-03-08T04:58:30.976Z,14.20
2023-03-08T04:59:02.916Z,16.23
2023-03-08T04:59:34.930Z,16.50
2023-03-08T05:00:10.152Z,13.32
2023-03-08T05:00:42.422Z,11.25
2023-03-08T05:01:16.116Z,14.77
2023-03-08T05:01:49.040Z,16.55
2023-03-08T05:02:21.985Z,13.70
2023-03-08T05:02:53.921Z,15.50
2023-03-08T05:03:27.181Z,14.68
2023-03-08T05:03:59.030Z,14.82
2023-03-08T05:04:31.093Z,13.63
2023-03-08T05:05:04.337Z,15.55
2023-03-08T05:05:36.318Z,15.60
2023-03-08T05:06:09.212Z,17.05
2023-03-08T05:06:42.070Z,15.43
2023-03-08T05:07:13.976Z,14.60
2023-03-08T05:07:46.197Z,12.45
2023-03-08T05:08:18.778Z,15.98
2023-03-08T05:08:52.185Z,13.02
2023-03-08T05:09:24.087Z,12.38
2023-03-08T05:09:55.936Z,12.63
2023-03-08T05:10:30.227Z,14.73
2023-03-08T05:11:02.619Z,14.32
2023-03-08T05:11:34.522Z,13.98
2023-03-08T05:12:07.943Z,16.55
2023-03-08T05:12:39.839Z,12.48
2023-03-08T05:13:11.717Z,13.70
2023-03-08T05:13:44.583Z,14.07
2023-03-08T05:14:16.430Z,12.13
2023-03-08T05:14:48.314Z,14.38
2023-03-08T05:15:23.409Z,15.88
2023-03-08T05:15:55.575Z,13.77
2023-03-08T05:16:28.122Z,15.88
2023-03-08T05:17:02.557Z,12.95
2023-03-08T05:17:34.533Z,13.05
2023-03-08T05:18:06.467Z,14.32
2023-03-08T05:18:39.317Z,15.35
2023-03-08T05:19:11.173Z,14.88
2023-03-08T05:19:43.050Z,16.90
2023-03-08T05:20:16.174Z,13.80
2023-03-08T05:20:54.444Z,16.25
2023-03-08T05:21:26.337Z,16.38
2023-03-08T05:21:59.162Z,14.75
2023-03-08T05:22:31.084Z,13.30
2023-03-08T05:23:03.020Z,18.15
2023-03-08T05:23:36.012Z,15.40
2023-03-08T05:24:07.974Z,14.40
2023-03-08T05:24:41.335Z,16.40
2023-03-08T05:25:14.168Z,13.65
2023-03-08T05:25:47.457Z,13.60
2023-03-08T05:26:19.560Z,16.17
2023-03-08T05:26:52.406Z,13.80
2023-03-08T05:27:24.501Z,15.13
2023-03-08T05:27:56.346Z,14.95
2023-03-08T05:28:31.600Z,15.23
2023-03-08T05:29:06.250Z,17.88
2023-03-08T05:29:38.144Z,14.85
2023-03-08T05:30:11.260Z,15.02
2023-03-08T05:30:44.105Z,14.85
2023-03-08T05:31:18.150Z,18.13
2023-03-08T05:31:50.127Z,15.77
2023-03-08T05:32:23.035Z,13.65
2023-03-08T05:32:54.910Z,14.85
2023-03-08T05:33:26.828Z,18.02
2023-03-08T05:33:59.859Z,17.10
2023-03-08T05:34:31.716Z,17.30
2023-03-08T05:35:03.904Z,13.52
2023-03-08T05:35:35.866Z,19.38
2023-03-08T05:36:09.599Z,14.68
2023-03-08T05:36:42.587Z,15.85
2023-03-08T05:37:14.449Z,13.80
2023-03-08T05:37:47.290Z,14.57
2023-03-08T05:38:19.202Z,18.15
2023-03-08T05:38:54.721Z,16.27
2023-03-08T05:39:26.547Z,17.17
2023-03-08T05:39:58.444Z,14.75
2023-03-08T05:40:31.262Z,15.07
2023-03-08T05:41:06.865Z,17.23
2023-03-08T05:41:38.722Z,16.75
2023-03-08T05:42:12.039Z,16.45
2023-03-08T05:42:43.957Z,18.33
2023-03-08T05:43:16.007Z,16.35
2023-03-08T05:43:48.892Z,14.48
2023-03-08T05:44:20.738Z,18.17
2023-03-08T05:44:52.640Z,17.48
2023-03-08T05:45:24.585Z,14.95
2023-03-08T05:45:59.114Z,18.73
2023-03-08T05:46:32.142Z,16.48
2023-03-08T05:47:04.462Z,16.85
2023-03-08T05:47:37.327Z,17.15
2023-03-08T05:48:09.241Z,19.00
2023-03-08T05:48:41.359Z,15.60
2023-03-08T05:49:14.218Z,17.30
2023-03-08T05:49:46.076Z,15.90
2023-03-08T05:50:18.089Z,15.82
2023-03-08T05:50:50.944Z,19.90
2023-03-08T05:51:22.839Z,13.70
2023-03-08T05:51:55.728Z,18.52
2023-03-08T05:52:27.574Z,14.25
2023-03-08T05:52:59.466Z,21.00
2023-03-08T05:53:31.355Z,18.08
2023-03-08T05:54:04.223Z,20.52
2023-03-08T05:54:36.147Z,16.85
2023-03-08T05:55:09.012Z,18.63
2023-03-08T05:55:41.944Z,17.50
2023-03-08T05:56:17.681Z,18.45
2023-03-08T05:56:49.529Z,20.98
2023-03-08T05:57:22.370Z,21.63
2023-03-08T05:57:54.230Z,16.00
2023-03-08T05:58:26.079Z,19.27
2023-03-08T05:58:58.941Z,18.48
2023-03-08T05:59:30.938Z,20.67
2023-03-08T06:00:04.497Z,19.38
2023-03-08T06:00:37.375Z,20.67
2023-03-08T06:01:11.566Z,18.38
2023-03-08T06:01:43.428Z,19.00
2023-03-08T06:02:16.332Z,18.42
2023-03-08T06:02:48.207Z,17.20
2023-03-08T06:03:20.625Z,15.43
2023-03-08T06:03:55.516Z,18.58
2023-03-08T06:04:27.472Z,19.13
2023-03-08T06:04:59.471Z,15.68
2023-03-08T06:05:33.131Z,17.08
2023-03-08T06:06:05.528Z,17.17
2023-03-08T06:06:37.471Z,18.70
2023-03-08T06:07:10.313Z,13.85
2023-03-08T06:07:43.676Z,19.48
2023-03-08T06:08:16.541Z,17.77
2023-03-08T06:08:48.648Z,15.70
2023-03-08T06:09:20.515Z,22.70
2023-03-08T06:09:53.397Z,18.27
2023-03-08T06:10:25.636Z,18.33
2023-03-08T06:10:57.496Z,15.82
2023-03-08T06:11:31.760Z,19.83
2023-03-08T06:12:03.871Z,20.58
2023-03-08T06:12:35.732Z,17.27
2023-03-08T06:13:08.543Z,15.82
2023-03-08T06:13:40.757Z,17.27
2023-03-08T06:14:13.339Z,16.17
2023-03-08T06:14:46.317Z,17.30
2023-03-08T06:15:18.430Z,16.02
2023-03-08T06:15:54.307Z,18.65
2023-03-08T06:16:27.239Z,17.85
2023-03-08T06:16:59.118Z,19.95
2023-03-08T06:17:31.027Z,17.38
2023-03-08T06:18:03.892Z,17.65
2023-03-08T06:18:37.089Z,17.15
2023-03-08T06:19:08.948Z,19.00
2023-03-08T06:19:41.916Z,18.45
2023-03-08T06:20:16.391Z,15.40
2023-03-08T06:21:00.237Z,18.58
2023-03-08T06:21:32.150Z,19.17
2023-03-08T06:22:04.043Z,21.13
2023-03-08T06:22:37.243Z,16.67
2023-03-08T06:23:09.079Z,15.63
2023-03-08T06:23:42.423Z,17.10
2023-03-08T06:24:14.313Z,17.50
2023-03-08T06:24:49.592Z,20.00
2023-03-08T06:25:21.521Z,18.98
2023-03-08T06:25:54.726Z,19.70
2023-03-08T06:26:26.611Z,19.30
2023-03-08T06:26:59.860Z,15.50
2023-03-08T06:27:32.760Z,26.02
2023-03-08T06:28:04.763Z,18.70
2023-03-08T06:28:40.179Z,18.65
2023-03-08T06:29:12.020Z,21.05
2023-03-08T06:29:43.892Z,18.35
2023-03-08T06:30:17.133Z,25.70
2023-03-08T06:30:49.679Z,17.15
2023-03-08T06:31:22.776Z,18.08
2023-03-08T06:31:54.830Z,15.75
2023-03-08T06:32:26.843Z,17.48
2023-03-08T06:32:59.831Z,19.30
2023-03-08T06:33:33.283Z,21.25
2023-03-08T06:34:05.133Z,18.40
2023-03-08T06:34:38.323Z,17.45
2023-03-08T06:35:10.722Z,17.70
2023-03-08T06:35:43.764Z,20.90
2023-03-08T06:36:17.426Z,17.05
2023-03-08T06:36:49.320Z,14.93
2023-03-08T06:37:22.133Z,15.07
2023-03-08T06:37:54.003Z,23.20
2023-03-08T06:38:29.412Z,20.15
2023-03-08T06:39:03.250Z,16.40
2023-03-08T06:39:35.252Z,18.52
2023-03-08T06:40:09.183Z,18.42
2023-03-08T06:40:42.211Z,18.60
2023-03-08T06:41:16.096Z,25.40
2023-03-08T06:41:48.044Z,16.52
2023-03-08T06:42:31.351Z,18.85
2023-03-08T06:43:11.894Z,18.23
2023-03-08T06:43:45.277Z,17.40
2023-03-08T06:44:17.172Z,15.43
2023-03-08T06:44:49.031Z,18.10
2023-03-08T06:45:21.852Z,20.50
2023-03-08T06:45:53.876Z,19.58
2023-03-08T06:46:25.829Z,15.32
2023-03-08T06:46:58.916Z,17.20
2023-03-08T06:47:31.193Z,16.67
2023-03-08T06:48:03.100Z,18.27
2023-03-08T06:48:36.586Z,16.75
2023-03-08T06:49:09.117Z,19.58
2023-03-08T06:49:41.131Z,17.17
2023-03-08T06:50:14.031Z,17.50
2023-03-08T06:50:46.293Z,19.02
2023-03-08T06:51:18.558Z,16.05
2023-03-08T06:51:51.439Z,16.77
2023-03-08T06:52:23.263Z,16.33
2023-03-08T06:52:55.630Z,19.52
2023-03-08T06:53:28.552Z,17.17
2023-03-08T06:54:00.441Z,19.15
2023-03-08T06:54:33.285Z,20.08
2023-03-08T06:55:05.858Z,18.02
2023-03-08T06:55:38.836Z,20.38
2023-03-08T06:56:13.929Z,20.08
2023-03-08T06:56:46.945Z,19.10
2023-03-08T06:57:18.814Z,18.95
2023-03-08T06:57:53.314Z,18.08
2023-03-08T06:58:25.228Z,20.58
2023-03-08T06:58:58.181Z,20.95
2023-03-08T06:59:30.141Z,17.35
2023-03-08T07:00:02.125Z,18.17
2023-03-08T07:00:35.458Z,16.95
2023-03-08T07:01:09.614Z,17.35
2023-03-08T07:01:41.979Z,20.00
2023-03-08T07:02:14.874Z,23.48
2023-03-08T07:02:48.484Z,16.67
2023-03-08T07:03:20.377Z,20.13
2023-03-08T07:03:53.363Z,16.90
2023-03-08T07:04:25.348Z,21.08
2023-03-08T07:04:57.283Z,19.02
2023-03-08T07:05:30.368Z,21.25